Relevés horaires Stabio (Suisse)


Relevés horaires à Stabio - Mardi 31 Déc. 2002
Heure UTC1 Température [°C] Vent [km/h] Hum. [%] Pres.4 [hPa] Visi. [Km] Nébu. [octa] Préc.5 [mm] Cond.
2m. Res. Ros. Dir.2 Vit. Moy. Raf.3
23:00 4.8 4.8 4.1 SO 3.7 -- -- 95 1011 -- -- -- --
22:00 5.0 5.0 4.2 NNO 0.0 -- -- 95 1010.4 -- -- -- --
21:00 5.0 5.0 4.1 E 1.9 -- -- 94 1010 -- -- -- --
20:00 5.4 4.3 4.5 OSO 5.6 -- -- 94 1009.3 -- -- -- --
19:00 6.1 6.1 4.9 NNO 0.0 -- -- 92 1008.4 -- -- -- --
18:00 6.3 6.3 5.3 S 3.7 -- -- 93 1007.8(2.5/3h) -- -- 0.2/12h
--
17:00 5.0 5.0 4.1 OSO 3.7 -- -- 94 1006.8 -- -- -- --
16:00 7.1 7.1 5.8 SSE 1.9 -- -- 91 1005.7 -- -- -- --
15:00 8.2 8.2 6.2 OSO 1.9 -- -- 87 1004.9 -- -- -- --
14:00 8.3 8.3 6.4 NNO 0.0 -- -- 88 1004.4 -- -- -- --
13:00 8.0 8.0 6.5 NNO 0.0 -- -- 90 1004.4 -- -- -- --
12:00 7.7 6.9 5.7 SO 5.6 -- -- 87 1004.9(-0.8/3h) -- -- -- --
10:00 6.6 6.6 5.3 NNO 0.0 -- -- 91 1005.9 -- -- -- --
09:00 6.1 6.1 5.1 S 3.7 -- -- 93 1006(-0.6/3h) -- -- -- --
08:00 5.8 5.8 4.8 NNO 0.0 -- -- 93 1006.1 -- -- -- --
07:00 5.6 5.6 4.7 OSO 1.9 -- -- 94 1006.5 -- -- -- --
06:00 5.7 5.7 5.0 NNO 0.0 -- -- 95 1006.6(-0.4/3h) -- -- 10/12h
--
05:00 5.9 5.9 4.8 S 1.9 -- -- 93 1006.6 -- -- -- --
04:00 6.2 5.2 5.1 S 5.6 -- -- 93 1006.5 -- -- -- --
03:00 5.9 5.9 5.2 NNO 0.0 -- -- 95 1007 -- -- -- --
02:00 5.9 5.9 5.1 NNO 0.0 -- -- 95 1008 -- -- -- --
01:00 5.9 5.9 5.2 NNO 0.0 -- -- 95 1008.3 -- -- -- --
00:00 6.0 6.0 5.3 NNO 0.0 -- -- 95 1008.8(-1.3/3h) -- -- -- --

1 Coordinated Universal Time. Actuellement il est 01:00 locale et 23:00 UTC.

2 Le vent souffle depuis la direction indiquée vers la direction oposée.

3 Les rafales max. sont disponible 40 min après l'heure du relevé.

4 Pour les stations d'altitude (plus de 600m) le géopotentiel du niveau le plus proche de la pression obligatoire est indiqué.

5 Les stations disposant d'un diffuseur peuvent indiquer "trace". Cela signifie que des précipitations ont touchés le sol mais que la quantité est inférieure à 0.1 mm.

Copyright

Les données affichées sur cette page sont la propriété exclusive de Météo Suisse.

Récapitulatif de la journée
Température [°C] Vent [km/h] Ensoleillement4 [h] Precipitations totale5 [mm] Pression [Hpa]
Min1 Max.2 Moy.3 Max. Min Max.
5.4 8.3 0 -- 0 h 0 min 0.2 1004.4 1011.0

1 Température minimale relevée entre 18:00 UTC la veille et 18:00 UTC le jour donné.

2 Température maximale relevée entre 06:00 UTC le jour donné et 06:00 UTC le lendemain.

3 Vent moyen de la journée basé sur les relevés horaires.

4 Ensoleillement en heures relevé entre 06:00 UTC la veille et 06:00 UTC le jour donné.

5 Précipitations totales tombées entre 06:00 UTC la jour donné et 06:00 UTC le lendemain.

Graphiques horaires